CW7253 Weather Reports


time (UTC)temp
C
wind
direction
speed
KPH
gust
KPH
rain 1hr
cm
rain 24hr
cm
rain mn
cm
humidity
%
barometer
mb
20260505184050 27 248 3.2 19.3 0.00 0.00 0.00 44 1007.7
20260505183541 27 205 4.8 19.3 0.00 0.00 0.00 44 1007.7
20260505183039 27 273 4.8 19.3 0.00 0.00 0.00 44 1007.7
20260505182533 27 287 1.6 12.9 0.00 0.00 0.00 45 1007.7
20260505182027 27 217 3.2 17.7 0.00 0.00 0.00 46 1007.8
20260505181521 27 246 3.2 17.7 0.00 0.00 0.00 44 1007.8
20260505181010 27 209 4.8 20.9 0.00 0.00 0.00 44 1007.9
20260505180504 27 246 4.8 20.9 0.00 0.00 0.00 45 1008.0
20260505175955 27 198 3.2 22.5 0.00 0.00 0.00 46 1008.0
20260505175457 27 241 4.8 22.5 0.00 0.00 0.00 45 1008.0
20260505174951 27 251 3.2 17.7 0.00 0.00 0.00 45 1008.1
20260505174444 27 193 3.2 25.7 0.00 0.00 0.00 47 1008.0
20260505173939 27 178 4.8 25.7 0.00 0.00 0.00 46 1008.1
20260505173428 27 242 3.2 16.1 0.00 0.00 0.00 46 1008.1
20260505172926 27 186 1.6 16.1 0.00 0.00 0.00 45 1008.1
20260505172420 26 240 3.2 20.9 0.00 0.00 0.00 48 1008.2
20260505172146 26 211 4.8 20.9 0.00 0.00 0.00 47 1008.4
20260505171404 26 232 3.2 17.7 0.00 0.00 0.00 50 1008.2
20260505170858 26 245 3.2 17.7 0.00 0.00 0.00 52 1008.4
20260505170357 26 262 3.2 16.1 0.00 0.00 0.00 49 1008.5
20260505165850 26 215 3.2 17.7 0.00 0.00 0.00 50 1008.6
20260505165345 26 242 4.8 25.7 0.00 0.00 0.00 47 1008.7
20260505164839 26 258 6.4 25.7 0.00 0.00 0.00 50 1008.8
20260505164328 26 248 4.8 17.7 0.00 0.00 0.00 48 1008.7
20260505163827 26 249 6.4 24.1 0.00 0.00 0.00 51 1008.9
20260505163321 26 251 4.8 24.1 0.00 0.00 0.00 50 1009.0
20260505162814 26 248 3.2 22.5 0.00 0.00 0.00 51 1009.0
20260505162306 26 257 4.8 22.5 0.00 0.00 0.00 49 1009.1
20260505161803 26 246 4.8 22.5 0.00 0.00 0.00 50 1009.1
20260505161256 26 244 3.2 16.1 0.00 0.00 0.00 50 1009.2
20260505160747 26 260 4.8 17.7 0.00 0.00 0.00 50 1009.1
20260505160245 25 240 3.2 17.7 0.00 0.00 0.00 51 1009.1
20260505153204 25 258 4.8 20.9 0.00 0.00 0.00 52 1009.2
20260505152703 25 248 3.2 20.9 0.00 0.00 0.00 52 1009.1
20260505152156 25 194 1.6 11.3 0.00 0.00 0.00 53 1009.1
20260505151650 25 240 1.6 12.9 0.00 0.00 0.00 52 1009.2
20260505151415 24 240 1.6 12.9 0.00 0.00 0.00 53 1009.3
20260505150906 24 200 1.6 19.3 0.00 0.00 0.00 55 1009.2
20260505150132 24 248 1.6 19.3 0.00 0.00 0.00 56 1009.2
20260505124350 19 122 0.0 4.8 0.00 0.00 0.00 70 1010.4
20260505123838 18 118 0.0 0.0 0.00 0.00 0.00 71 1010.3
20260505123338 18 118 0.0 0.0 0.00 0.00 0.00 73 1010.4
20260505122833 18 118 0.0 0.0 0.00 0.00 0.00 72 1010.4
20260505122326 18 118 0.0 1.6 0.00 0.00 0.00 73 1010.3
20260505121820 17 118 0.0 1.6 0.00 0.00 0.00 73 1010.3
20260505121314 17 117 0.0 0.0 0.00 0.00 0.00 74 1010.3
20260505120805 17 117 0.0 0.0 0.00 0.00 0.00 75 1010.2
20260505120256 17 117 0.0 3.2 0.00 0.00 0.00 76 1010.2
20260505115757 16 117 0.0 3.2 0.00 0.00 0.00 77 1010.1
20260505115251 16 117 0.0 0.0 0.00 0.00 0.00 78 1010.0
20260505114744 16 117 0.0 0.0 0.00 0.00 0.00 79 1010.0
20260505114238 15 117 0.0 0.0 0.00 0.00 0.00 80 1010.0
20260505113725 15 117 0.0 0.0 0.00 0.00 0.00 84 1010.0
20260505113226 14 117 0.0 0.0 0.00 0.00 0.00 84 1009.8
20260505112720 14 117 0.0 0.0 0.00 0.00 0.00 84 1009.8
20260505112214 14 117 0.0 0.0 0.00 0.00 0.00 83 1009.8
20260505111708 14 117 0.0 0.0 0.00 0.00 0.00 82 1009.8
20260505111154 14 117 0.0 0.0 0.00 0.00 0.00 82 1009.8
20260505110654 14 117 0.0 0.0 0.00 0.00 0.00 82 1009.9
20260505110419 14 117 0.0 0.0 0.00 0.00 0.00 81 1009.9
20260505102043 12 117 0.0 0.0 0.00 0.00 0.00 85 1009.3
20260505101541 12 117 0.0 0.0 0.00 0.00 0.00 86 1009.2
20260505101039 12 117 0.0 0.0 0.00 0.00 0.00 86 1009.1
20260505100812 12 117 0.0 0.0 0.00 0.00 0.00 86 1009.1
20260505100039 12 117 0.0 0.0 0.00 0.00 0.00 86 1009.2
20260505095811 12 117 0.0 0.0 0.00 0.00 0.00 85 1009.2
20260505095039 12 117 0.0 0.0 0.00 0.00 0.00 84 1009.2
20260505094541 12 117 0.0 0.0 0.00 0.00 0.00 84 1009.1
20260505094313 12 117 0.0 0.0 0.00 0.00 0.00 83 1009.3
20260505093536 13 117 0.0 0.0 0.00 0.00 0.00 83 1009.2
20260505093255 13 117 0.0 0.0 0.00 0.00 0.00 83 1009.2
20260505092512 13 117 0.0 0.0 0.00 0.00 0.00 83 1009.1
20260505092000 12 117 0.0 0.0 0.00 0.00 0.00 83 1009.1
20260505091719 13 117 0.0 0.0 0.00 0.00 0.00 83 1009.2
20260505090936 13 117 0.0 0.0 0.00 0.00 0.00 82 1008.9
20260505090436 13 117 0.0 0.0 0.00 0.00 0.00 82 1008.8
20260505085935 13 117 0.0 0.0 0.00 0.00 0.00 81 1008.8
20260505085436 13 117 0.0 0.0 0.00 0.00 0.00 80 1009.0
20260505084936 13 117 0.0 0.0 0.00 0.00 0.00 80 1008.9
20260505084436 13 117 0.0 0.0 0.00 0.00 0.00 79 1008.9
20260505083934 13 117 0.0 0.0 0.00 0.00 0.00 79 1008.9
20260505083438 14 117 0.0 0.0 0.00 0.00 0.00 78 1008.8
20260505082938 14 117 0.0 0.0 0.00 0.00 0.00 78 1008.8
20260505082703 14 117 0.0 0.0 0.00 0.00 0.00 78 1008.7
20260505081920 14 117 0.0 0.0 0.00 0.00 0.00 78 1008.7
20260505081419 14 117 0.0 0.0 0.00 0.00 0.00 78 1008.7
20260505080918 14 117 0.0 0.0 0.00 0.00 0.00 77 1008.8
20260505080651 15 117 0.0 0.0 0.00 0.00 0.00 76 1008.7
20260505075919 15 117 0.0 0.0 0.00 0.00 0.00 75 1008.7
20260505075419 15 117 0.0 0.0 0.00 0.00 0.00 74 1008.7
20260505074919 15 117 0.0 0.0 0.00 0.00 0.00 73 1008.7
20260505074421 16 117 0.0 0.0 0.00 0.00 0.00 73 1008.7
20260505074153 16 117 0.0 0.0 0.00 0.00 0.00 73 1008.6
20260505073416 16 117 0.0 0.0 0.00 0.00 0.00 71 1008.6
20260505072904 16 117 0.0 0.0 0.00 0.00 0.00 71 1008.6
20260505072352 16 117 0.0 0.0 0.00 0.00 0.00 69 1008.5
20260505071840 16 117 0.0 0.0 0.00 0.00 0.00 68 1008.5
20260505071328 16 117 0.0 0.0 0.00 0.00 0.00 69 1008.5
20260505071048 17 117 0.0 0.0 0.00 0.00 0.00 69 1008.5
20260505070301 17 117 0.0 0.0 0.00 0.00 0.00 68 1008.5
20260505065750 17 117 0.0 0.0 0.00 0.00 0.00 68 1008.5
20260505065238 17 117 0.0 0.0 0.00 0.00 0.00 68 1008.6
20260505064725 17 117 0.0 0.0 0.00 0.00 0.00 68 1008.6
20260505064214 16 117 0.0 0.0 0.00 0.00 0.00 68 1008.7
20260505063716 16 117 0.0 0.0 0.00 0.00 0.00 68 1008.6
20260505063214 16 117 0.0 0.0 0.00 0.00 0.00 68 1008.7
20260505062714 16 117 0.0 0.0 0.00 0.00 0.00 68 1008.7
20260505062214 16 117 0.0 3.2 0.00 0.00 0.00 67 1008.8
20260505061716 16 117 0.0 3.2 0.00 0.00 0.00 68 1008.9
20260505061214 16 117 0.0 0.0 0.00 0.00 0.00 67 1008.9
20260505060714 16 117 0.0 0.0 0.00 0.00 0.00 67 1008.9
20260505060216 16 117 0.0 0.0 0.00 0.00 0.00 67 1008.8
20260505055709 16 117 0.0 0.0 0.00 0.00 0.00 67 1008.9
20260505055206 16 117 0.0 0.0 0.00 0.00 0.00 67 1008.8
20260505054706 16 117 0.0 0.0 0.00 0.00 0.00 67 1008.8
20260505054209 16 117 0.0 0.0 0.00 0.00 0.00 67 1008.9
20260505053938 16 117 0.0 0.0 0.00 0.00 0.00 67 1008.9
20260505053206 16 117 0.0 0.0 0.00 0.00 0.00 67 1008.9
20260505052707 16 117 0.0 0.0 0.00 0.00 0.00 66 1009.0
20260505052204 17 117 0.0 0.0 0.00 0.00 0.00 66 1009.0
20260505051705 17 117 0.0 0.0 0.00 0.00 0.00 65 1008.9
20260505051204 17 117 0.0 0.0 0.00 0.00 0.00 65 1008.8
20260505050933 17 117 0.0 0.0 0.00 0.00 0.00 65 1008.7
20260505050424 17 117 0.0 1.6 0.00 0.00 0.00 65 1008.7
20260505041552 16 117 0.0 0.0 0.00 0.00 0.00 67 1008.5
20260505041046 16 117 0.0 0.0 0.00 0.00 0.00 66 1008.5
20260505040810 16 117 0.0 0.0 0.00 0.00 0.00 66 1008.5
20260505040034 16 117 0.0 0.0 0.00 0.00 0.00 65 1008.5
20260505035520 16 117 0.0 0.0 0.00 0.00 0.00 65 1008.5
20260505035021 16 117 0.0 0.0 0.00 0.00 0.00 65 1008.5
20260505034515 16 117 0.0 0.0 0.00 0.00 0.00 64 1008.5
20260505034004 16 117 0.0 0.0 0.00 0.00 0.00 64 1008.5
20260505033501 16 117 0.0 0.0 0.00 0.00 0.00 64 1008.5
20260505032955 17 117 0.0 0.0 0.00 0.00 0.00 63 1008.5
20260505032444 17 117 0.0 1.6 0.00 0.00 0.00 62 1008.4
20260505032440 17 117 0.0 0.0 0.00 0.00 0.00 62 1008.5
20260505031706 17 117 0.0 4.8 0.00 0.00 0.00 62 1008.4
20260505030929 17 117 0.0 11.3 0.00 0.00 0.00 61 1008.5
20260505030423 17 117 0.0 8.0 0.00 0.00 0.00 61 1008.4
20260505025917 17 117 0.0 6.4 0.00 0.00 0.00 61 1008.4
20260505025410 17 116 1.6 12.9 0.00 0.00 0.00 61 1008.2
20260505025131 17 115 1.6 12.9 0.00 0.00 0.00 61 1008.1
20260505024359 17 147 0.0 8.0 0.00 0.00 0.00 61 1008.1
20260505024123 17 147 0.0 9.7 0.00 0.00 0.00 61 1008.2
20260505023347 17 150 1.6 9.7 0.00 0.00 0.00 60 1008.1
20260505022841 17 126 0.0 11.3 0.00 0.00 0.00 60 1008.2
20260505022327 17 115 1.6 11.3 0.00 0.00 0.00 60 1008.1
20260505021835 17 163 0.0 4.8 0.00 0.00 0.00 60 1008.2
20260505021829 17 163 0.0 11.3 0.00 0.00 0.00 60 1008.1
20260505020816 17 163 0.0 3.2 0.00 0.00 0.00 60 1008.3
20260505020312 17 165 1.6 12.9 0.00 0.00 0.00 60 1008.3
20260505015805 17 165 1.6 12.9 0.00 0.00 0.00 59 1008.3
20260505015259 17 100 1.6 11.3 0.00 0.00 0.00 59 1008.3
20260505014746 17 136 0.0 11.3 0.00 0.00 0.00 60 1008.2
20260505014247 18 143 0.0 9.7 0.00 0.00 0.00 59 1008.2
20260505013741 18 151 0.0 9.7 0.00 0.00 0.00 59 1008.3
20260505013235 18 156 0.0 8.0 0.00 0.00 0.00 59 1008.4
20260505012728 18 132 0.0 11.3 0.00 0.00 0.00 59 1008.4
20260505012218 18 126 0.0 11.3 0.00 0.00 0.00 59 1008.4
20260505011715 18 123 1.6 11.3 0.00 0.00 0.00 58 1008.3
20260505011204 18 122 1.6 11.3 0.00 0.00 0.00 58 1008.2
20260505010929 18 134 0.0 9.7 0.00 0.00 0.00 58 1008.1
20260505010156 18 136 0.0 4.8 0.00 0.00 0.00 57 1008.0
20260505005649 18 136 0.0 6.4 0.00 0.00 0.00 57 1007.9
20260505005145 18 136 0.0 6.4 0.00 0.00 0.00 56 1007.9
20260505004638 19 134 1.6 19.3 0.00 0.00 0.00 56 1007.9
20260505004132 19 136 1.6 19.3 0.00 0.00 0.00 56 1007.8
20260505003627 19 126 1.6 12.9 0.00 0.00 0.00 56 1007.9
20260505003116 19 138 1.6 9.7 0.00 0.00 0.00 55 1007.9
20260505002614 20 142 0.0 8.0 0.00 0.00 0.00 55 1007.8
20260505002102 20 146 0.0 6.4 0.00 0.00 0.00 54 1007.8
20260505001603 20 146 0.0 6.4 0.00 0.00 0.00 53 1007.8
20260505001057 20 149 0.0 3.2 0.00 0.00 0.00 52 1007.8
20260505000546 21 169 0.0 1.6 0.00 0.00 0.00 51 1007.7
20260505000045 21 169 0.0 3.2 0.00 0.00 0.00 51 1007.7
20260504235536 21 169 0.0 3.2 0.00 0.00 0.00 50 1007.5
20260504235033 21 169 0.0 4.8 0.00 0.00 0.00 50 1007.5
20260504234757 21 169 0.0 11.3 0.00 0.00 0.00 49 1007.5
20260504234021 22 169 0.0 11.3 0.00 0.00 0.00 48 1007.4
20260504233515 22 169 0.0 4.8 0.00 0.00 0.00 49 1007.4
20260504233005 22 169 0.0 12.9 0.00 0.00 0.00 48 1007.4
20260504232503 22 169 1.6 12.9 0.00 0.00 0.00 47 1007.4
20260504231957 22 208 1.6 9.7 0.00 0.00 0.00 49 1007.4
20260504231451 22 210 0.0 9.7 0.00 0.00 0.00 48 1007.4
20260504230943 22 198 0.0 9.7 0.00 0.00 0.00 48 1007.5
20260504230437 22 198 0.0 9.7 0.00 0.00 0.00 48 1007.5
20260504225931 22 169 1.6 12.9 0.00 0.00 0.00 47 1007.5
20260504225424 22 192 1.6 12.9 0.00 0.00 0.00 47 1007.5
20260504224911 22 212 0.0 11.3 0.00 0.00 0.00 48 1007.5
20260504224413 22 211 1.6 11.3 0.00 0.00 0.00 47 1007.6
20260504223902 23 188 1.6 9.7 0.00 0.00 0.00 46 1007.5
20260504223631 23 188 0.0 9.7 0.00 0.00 0.00 47 1007.6
20260504222855 23 187 0.0 11.3 0.00 0.00 0.00 47 1007.6
20260504222344 23 178 1.6 12.9 0.00 0.00 0.00 47 1007.7
20260504222114 23 174 1.6 12.9 0.00 0.00 0.00 46 1007.7
20260504221332 23 183 3.2 12.9 0.00 0.00 0.00 45 1007.7
20260504220830 23 180 3.2 22.5 0.00 0.00 0.00 46 1007.7
20260504220325 23 186 3.2 22.5 0.00 0.00 0.00 44 1007.6
20260504215819 23 219 1.6 12.9 0.00 0.00 0.00 44 1007.7
20260504215312 23 242 1.6 12.9 0.00 0.00 0.00 44 1007.7
20260504214803 23 198 1.6 9.7 0.00 0.00 0.00 45 1007.7
20260504214300 23 160 1.6 11.3 0.00 0.00 0.00 45 1007.7
20260504214027 23 202 1.6 11.3 0.00 0.00 0.00 44 1007.7
20260504213248 23 243 1.6 14.5 0.00 0.00 0.00 44 1007.7
20260504212743 23 250 1.6 14.5 0.00 0.00 0.00 44 1007.6
20260504212501 23 186 0.0 9.7 0.00 0.00 0.00 44 1007.7
20260504211732 23 252 1.6 12.9 0.00 0.00 0.00 46 1007.7
20260504211225 23 252 1.6 12.9 0.00 0.00 0.00 45 1007.7
20260504210719 23 237 1.6 12.9 0.00 0.00 0.00 44 1007.7
20260504210217 23 178 3.2 17.7 0.00 0.00 0.00 44 1007.7
20260504210212 23 214 3.2 14.5 0.00 0.00 0.00 44 1007.7
20260504205432 23 248 1.6 17.7 0.00 0.00 0.00 44 1007.8
20260504204650 23 204 3.2 16.1 0.00 0.00 0.00 45 1007.8
20260504204148 23 250 3.2 16.1 0.00 0.00 0.00 44 1007.8
20260504203642 23 235 3.2 16.1 0.00 0.00 0.00 43 1007.8
20260504203408 23 235 1.6 16.1 0.00 0.00 0.00 45 1007.9
20260504202630 23 205 1.6 9.7 0.00 0.00 0.00 45 1008.0
20260504202351 23 136 1.6 11.3 0.00 0.00 0.00 46 1008.0
20260504201619 23 135 1.6 16.1 0.00 0.00 0.00 44 1008.1
20260504201108 23 181 4.8 17.7 0.00 0.00 0.00 47 1008.2
20260504200607 23 193 3.2 17.7 0.00 0.00 0.00 44 1008.1
20260504200104 23 252 1.6 12.9 0.00 0.00 0.00 48 1008.3
20260504200056 23 255 3.2 12.9 0.00 0.00 0.00 47 1008.4
20260504195049 23 232 3.2 12.9 0.00 0.00 0.00 44 1008.5
20260504194809 23 244 3.2 16.1 0.00 0.00 0.00 46 1008.5
20260504194037 23 246 3.2 16.1 0.00 0.00 0.00 46 1008.7
20260504193530 23 227 3.2 11.3 0.00 0.00 0.00 45 1008.6
20260504193024 22 227 3.2 17.7 0.00 0.00 0.00 47 1008.7
20260504192750 22 259 3.2 17.7 0.00 0.00 0.00 48 1008.8
20260504192240 22 254 3.2 14.5 0.00 0.00 0.00 47 1008.8
20260504191506 22 218 3.2 17.7 0.00 0.00 0.00 47 1009.0
20260504191001 22 171 4.8 19.3 0.00 0.00 0.00 47 1009.1
20260504190956 22 221 4.8 19.3 0.00 0.00 0.00 46 1008.9
20260504185949 22 231 3.2 17.7 0.00 0.00 0.00 47 1009.1
20260504185442 22 263 3.2 14.5 0.00 0.00 0.00 47 1009.3
20260504184937 22 227 4.8 17.7 0.00 0.00 0.00 48 1009.2
20260504184423 22 245 3.2 17.7 0.00 0.00 0.00 46 1009.3